createdAt,value
2019-04-06T00:00:10.170Z,92.73
2019-04-06T00:02:40.629Z,92.13
2019-04-06T00:05:12.166Z,90.13
2019-04-06T00:07:45.368Z,93.37
2019-04-06T00:10:16.379Z,89.63
2019-04-06T00:12:46.855Z,94.80
2019-04-06T00:15:17.325Z,88.27
2019-04-06T00:17:48.364Z,94.63
2019-04-06T00:20:18.923Z,89.37
2019-04-06T00:22:49.425Z,93.73
2019-04-06T00:25:20.279Z,135.03
2019-04-06T00:27:50.757Z,103.27
2019-04-06T00:30:21.422Z,88.23
2019-04-06T00:33:07.433Z,95.73
2019-04-06T00:35:39.169Z,101.53
2019-04-06T00:38:09.658Z,92.47
2019-04-06T00:40:40.156Z,99.33
2019-04-06T00:43:10.677Z,89.63
2019-04-06T00:45:41.137Z,88.20
2019-04-06T00:48:15.028Z,87.97
2019-04-06T00:50:45.454Z,89.50
2019-04-06T00:53:18.256Z,90.43
2019-04-06T00:55:55.675Z,88.60
2019-04-06T00:58:21.755Z,86.53
2019-04-06T01:00:52.788Z,90.37
2019-04-06T01:03:25.809Z,94.00
2019-04-06T01:05:56.192Z,93.10
2019-04-06T01:08:27.043Z,100.70
2019-04-06T01:10:59.889Z,95.87
2019-04-06T01:13:30.483Z,104.50
2019-04-06T01:16:04.939Z,97.33
2019-04-06T01:18:36.967Z,108.13
2019-04-06T01:21:07.433Z,113.93
2019-04-06T01:23:37.892Z,103.87
2019-04-06T01:26:09.075Z,152.20
2019-04-06T01:28:40.554Z,95.47
2019-04-06T01:31:11.013Z,107.13
2019-04-06T01:33:41.737Z,104.60
2019-04-06T01:36:12.207Z,99.10
2019-04-06T01:38:42.607Z,155.80
2019-04-06T01:41:13.398Z,101.27
2019-04-06T01:43:43.958Z,114.60
2019-04-06T01:46:14.845Z,94.90
2019-04-06T01:48:45.292Z,96.37
2019-04-06T01:51:16.111Z,136.60
2019-04-06T01:53:46.916Z,95.53
2019-04-06T01:56:20.614Z,90.10
2019-04-06T01:58:53.597Z,100.13
2019-04-06T02:01:46.959Z,114.23
2019-04-06T02:04:17.393Z,106.33
2019-04-06T02:06:50.111Z,101.30
2019-04-06T02:09:20.755Z,105.43
2019-04-06T02:11:51.640Z,148.17
2019-04-06T02:14:22.121Z,99.43
2019-04-06T02:16:53.078Z,97.17
2019-04-06T02:19:23.943Z,107.17
2019-04-06T02:21:56.418Z,107.87
2019-04-06T02:24:26.851Z,104.97
2019-04-06T02:26:57.582Z,155.47
2019-04-06T02:29:28.201Z,99.73
2019-04-06T02:32:35.928Z,100.43
2019-04-06T02:35:36.041Z,168.70
2019-04-06T02:38:19.816Z,97.87
2019-04-06T02:41:15.313Z,95.57
2019-04-06T02:43:45.764Z,153.63
2019-04-06T02:46:16.497Z,120.50
2019-04-06T02:48:46.953Z,99.77
2019-04-06T02:51:17.416Z,100.03
2019-04-06T02:53:48.297Z,93.10
2019-04-06T02:56:18.742Z,88.60
2019-04-06T02:58:49.660Z,89.90
2019-04-06T03:01:20.212Z,98.67
2019-04-06T03:03:51.048Z,91.47
2019-04-06T03:06:24.766Z,95.47
2019-04-06T03:08:55.621Z,140.00
2019-04-06T03:11:27.093Z,97.57
2019-04-06T03:14:10.250Z,90.90
2019-04-06T03:16:40.773Z,154.67
2019-04-06T03:19:11.241Z,98.67
2019-04-06T03:21:41.828Z,100.20
2019-04-06T03:24:12.226Z,95.47
2019-04-06T03:26:42.741Z,99.63
2019-04-06T03:29:16.518Z,99.30
2019-04-06T03:31:47.351Z,147.93
2019-04-06T03:34:21.205Z,92.90
2019-04-06T03:36:50.054Z,95.87
2019-04-06T03:39:20.531Z,99.90
2019-04-06T03:41:53.387Z,98.10
2019-04-06T03:44:23.826Z,90.70
2019-04-06T03:46:54.235Z,137.83
2019-04-06T03:49:24.612Z,88.43
2019-04-06T03:51:55.487Z,88.60
2019-04-06T03:54:25.874Z,90.33
2019-04-06T03:56:56.385Z,145.57
2019-04-06T03:59:26.727Z,105.23
2019-04-06T04:01:59.071Z,99.77
2019-04-06T04:04:29.503Z,99.60
2019-04-06T04:07:00.202Z,87.90
2019-04-06T04:09:30.994Z,95.63
2019-04-06T04:12:02.144Z,96.50
2019-04-06T04:14:33.714Z,100.07
2019-04-06T04:17:04.240Z,150.07
2019-04-06T04:19:34.697Z,94.43
2019-04-06T04:22:05.041Z,98.40
2019-04-06T04:24:36.128Z,99.37
2019-04-06T04:27:07.199Z,93.03
2019-04-06T04:29:37.926Z,95.07
2019-04-06T04:32:08.414Z,145.30
2019-04-06T04:34:38.929Z,88.47
2019-04-06T04:37:09.281Z,85.73
2019-04-06T04:39:41.698Z,83.63
2019-04-06T04:42:12.041Z,89.70
2019-04-06T04:44:42.696Z,86.40
2019-04-06T04:47:13.298Z,98.60
2019-04-06T04:49:45.343Z,88.93
2019-04-06T04:52:15.666Z,117.67
2019-04-06T04:54:46.062Z,122.87
2019-04-06T04:57:16.490Z,140.17
2019-04-06T04:59:46.969Z,211.83
2019-04-06T05:02:17.386Z,141.23
2019-04-06T05:04:47.736Z,131.03
2019-04-06T05:07:19.220Z,87.77
2019-04-06T05:09:49.922Z,108.67
2019-04-06T05:12:20.381Z,106.80
2019-04-06T05:15:14.921Z,104.70
2019-04-06T05:17:52.868Z,151.20
2019-04-06T05:20:44.862Z,101.10
2019-04-06T05:23:30.584Z,115.67
2019-04-06T05:26:10.350Z,139.53
2019-04-06T05:28:41.270Z,96.90
2019-04-06T05:31:12.051Z,95.83
2019-04-06T05:33:42.434Z,102.07
2019-04-06T05:36:12.998Z,90.67
2019-04-06T05:38:43.469Z,94.67
2019-04-06T05:41:15.320Z,97.07
2019-04-06T05:43:53.942Z,90.17
2019-04-06T05:46:25.045Z,81.40
2019-04-06T05:48:55.541Z,78.97
2019-04-06T05:51:26.425Z,81.03
2019-04-06T05:53:56.958Z,150.37
2019-04-06T05:56:29.860Z,92.70
2019-04-06T05:59:00.327Z,87.43
2019-04-06T06:01:31.326Z,98.90
2019-04-06T06:04:04.767Z,99.93
2019-04-06T06:06:35.250Z,109.77
2019-04-06T06:09:25.113Z,99.80
2019-04-06T06:11:56.078Z,100.57
2019-04-06T06:14:26.812Z,108.93
2019-04-06T06:16:57.324Z,94.97
2019-04-06T06:19:27.790Z,97.00
2019-04-06T06:21:58.531Z,122.23
2019-04-06T06:24:31.144Z,115.23
2019-04-06T06:27:03.728Z,92.73
2019-04-06T06:29:34.391Z,116.20
2019-04-06T06:32:28.000Z,102.97
2019-04-06T06:35:00.085Z,87.00
2019-04-06T06:37:31.682Z,89.40
2019-04-06T06:40:02.285Z,112.77
2019-04-06T06:42:36.295Z,91.40
2019-04-06T06:45:07.319Z,91.03
2019-04-06T06:47:38.042Z,112.90
2019-04-06T06:50:11.548Z,102.80
2019-04-06T06:52:41.999Z,90.10
2019-04-06T06:55:12.635Z,106.67
2019-04-06T06:57:56.939Z,100.97
2019-04-06T07:00:41.664Z,95.73
2019-04-06T07:03:17.411Z,94.63
2019-04-06T07:06:19.316Z,112.37
2019-04-06T07:09:18.973Z,113.50
2019-04-06T07:12:00.100Z,109.23
2019-04-06T07:14:44.417Z,103.37
2019-04-06T07:17:26.638Z,101.60
2019-04-06T07:20:03.294Z,115.97
2019-04-06T07:22:37.715Z,112.80
2019-04-06T07:25:08.490Z,106.10
2019-04-06T07:27:44.919Z,110.73
2019-04-06T07:30:32.872Z,161.20
2019-04-06T07:33:42.609Z,110.07
2019-04-06T07:36:26.969Z,107.60
2019-04-06T07:39:27.631Z,116.20
2019-04-06T07:42:00.683Z,170.23
2019-04-06T07:45:11.532Z,111.30
2019-04-06T07:47:43.460Z,117.23
2019-04-06T07:50:16.547Z,119.73
2019-04-06T07:52:47.534Z,111.77
2019-04-06T07:55:18.297Z,116.80
2019-04-06T07:57:48.659Z,109.73
2019-04-06T08:00:31.971Z,108.30
2019-04-06T08:03:04.019Z,105.33
2019-04-06T08:05:38.370Z,105.70
2019-04-06T08:08:12.314Z,102.37
2019-04-06T08:10:45.189Z,102.60
2019-04-06T08:13:20.733Z,100.27
2019-04-06T08:15:54.363Z,96.57
2019-04-06T08:18:29.220Z,102.97
2019-04-06T08:21:00.641Z,97.60
2019-04-06T08:23:36.314Z,98.67
2019-04-06T08:26:12.756Z,104.83
2019-04-06T08:28:45.455Z,145.53
2019-04-06T08:31:33.703Z,95.77
2019-04-06T08:34:07.201Z,98.70
2019-04-06T08:36:44.038Z,101.87
2019-04-06T08:39:17.448Z,87.70
2019-04-06T08:41:50.903Z,88.57
2019-04-06T08:44:26.882Z,85.13
2019-04-06T08:47:02.719Z,85.10
2019-04-06T08:49:33.930Z,84.87
2019-04-06T08:52:11.760Z,81.03
2019-04-06T08:54:51.659Z,86.30
2019-04-06T08:57:26.208Z,82.93
2019-04-06T08:59:58.794Z,86.67
2019-04-06T09:02:35.759Z,84.90
2019-04-06T09:05:09.005Z,86.23
2019-04-06T09:07:53.882Z,76.30
2019-04-06T09:10:27.414Z,77.13
2019-04-06T09:13:09.141Z,77.87
2019-04-06T09:15:38.764Z,75.57
2019-04-06T09:18:36.039Z,74.20
2019-04-06T09:21:06.463Z,75.53
2019-04-06T09:23:58.318Z,78.60
2019-04-06T09:26:29.075Z,74.17
2019-04-06T09:28:59.941Z,69.50
2019-04-06T09:31:32.850Z,70.97
2019-04-06T09:34:03.344Z,66.87
2019-04-06T09:36:33.920Z,65.73
2019-04-06T09:39:06.446Z,66.13
2019-04-06T09:41:38.339Z,66.10
2019-04-06T09:44:15.205Z,63.60
2019-04-06T09:47:19.879Z,61.17
2019-04-06T09:50:27.059Z,60.20
2019-04-06T09:53:22.093Z,60.03
2019-04-06T09:56:05.983Z,58.83
2019-04-06T09:58:58.640Z,59.70
2019-04-06T10:01:42.972Z,55.07
2019-04-06T10:04:45.810Z,57.03
2019-04-06T10:07:41.870Z,55.00
2019-04-06T10:10:31.044Z,55.33
2019-04-06T10:13:27.500Z,54.77
2019-04-06T10:16:04.396Z,57.63
2019-04-06T10:19:00.177Z,53.80
2019-04-06T10:21:56.321Z,58.13
2019-04-06T10:24:35.839Z,61.50
2019-04-06T10:27:25.184Z,56.07
2019-04-06T10:30:16.526Z,52.73
2019-04-06T10:33:07.556Z,53.07
2019-04-06T10:36:16.114Z,50.33
2019-04-06T10:39:09.427Z,51.13
2019-04-06T10:41:58.764Z,49.80
2019-04-06T10:44:53.802Z,44.03
2019-04-06T10:47:46.618Z,42.77
2019-04-06T10:50:28.428Z,43.90
2019-04-06T10:53:20.026Z,46.13
2019-04-06T10:56:09.091Z,43.17
2019-04-06T10:59:02.806Z,41.07
2019-04-06T11:01:53.662Z,42.27
2019-04-06T11:04:34.580Z,40.57
2019-04-06T11:07:40.900Z,41.47
2019-04-06T11:10:41.979Z,32.53
2019-04-06T11:13:40.650Z,31.03
2019-04-06T11:16:25.014Z,33.90
2019-04-06T11:19:23.754Z,32.37
2019-04-06T11:22:09.391Z,28.67
2019-04-06T11:25:03.212Z,27.33
2019-04-06T11:27:47.493Z,29.70
2019-04-06T11:30:28.519Z,28.50
2019-04-06T11:33:40.576Z,29.10
2019-04-06T11:36:30.180Z,29.07
2019-04-06T11:39:26.522Z,30.27
2019-04-06T11:42:13.440Z,33.03
2019-04-06T11:45:23.907Z,32.00
2019-04-06T11:48:19.334Z,29.10
2019-04-06T11:51:10.210Z,31.10
2019-04-06T11:54:03.454Z,28.47
2019-04-06T11:56:52.835Z,28.87
2019-04-06T11:59:59.994Z,27.03
2019-04-06T12:03:00.947Z,31.73
2019-04-06T12:05:48.366Z,29.23
2019-04-06T12:08:36.637Z,31.80
2019-04-06T12:11:26.882Z,31.73
2019-04-06T12:14:25.189Z,30.03
2019-04-06T12:17:08.825Z,37.87
2019-04-06T12:19:56.934Z,36.77
2019-04-06T12:22:33.752Z,36.27
2019-04-06T12:25:12.495Z,37.23
2019-04-06T12:28:21.490Z,38.67
2019-04-06T12:31:08.222Z,39.27
2019-04-06T12:33:53.932Z,39.10
2019-04-06T12:36:49.356Z,38.87
2019-04-06T12:39:53.427Z,38.00
2019-04-06T12:42:38.659Z,39.17
2019-04-06T12:45:27.179Z,40.40
2019-04-06T12:48:33.937Z,38.90
2019-04-06T12:51:31.976Z,36.13
2019-04-06T12:54:23.825Z,35.30
2019-04-06T12:57:33.258Z,37.40
2019-04-06T13:00:32.286Z,33.17
2019-04-06T13:03:25.270Z,34.53
2019-04-06T13:06:09.362Z,38.47
2019-04-06T13:08:52.553Z,33.13
2019-04-06T13:11:51.248Z,33.73
2019-04-06T13:14:34.470Z,31.50
2019-04-06T13:17:22.385Z,30.60
2019-04-06T13:20:15.161Z,29.13
2019-04-06T13:23:18.218Z,32.47
2019-04-06T13:26:11.222Z,28.23
2019-04-06T13:29:12.851Z,32.20
2019-04-06T13:32:01.758Z,31.33
2019-04-06T13:34:54.828Z,31.13
2019-04-06T13:37:43.012Z,27.57
2019-04-06T13:40:35.561Z,30.10
2019-04-06T13:43:23.828Z,28.53
2019-04-06T13:46:10.202Z,30.07
2019-04-06T13:49:05.598Z,25.20
2019-04-06T13:51:45.683Z,21.67
2019-04-06T13:54:33.877Z,24.70
2019-04-06T13:57:23.588Z,20.97
2019-04-06T14:00:11.465Z,20.27
2019-04-06T14:03:08.462Z,25.63
2019-04-06T14:05:57.023Z,18.40
2019-04-06T14:08:43.299Z,16.90
2019-04-06T14:11:38.337Z,16.30
2019-04-06T14:14:23.156Z,19.03
2019-04-06T14:17:11.528Z,18.97
2019-04-06T14:20:08.375Z,15.77
2019-04-06T14:22:49.015Z,18.40
2019-04-06T14:25:37.705Z,17.57
2019-04-06T14:28:39.613Z,17.13
2019-04-06T14:31:47.280Z,17.37
2019-04-06T14:34:39.379Z,15.23
2019-04-06T14:37:44.528Z,18.80
2019-04-06T14:40:29.399Z,16.20
2019-04-06T14:43:10.103Z,15.93
2019-04-06T14:46:05.656Z,17.43
2019-04-06T14:49:09.185Z,16.77
2019-04-06T14:52:03.824Z,17.33
2019-04-06T14:55:08.908Z,15.97
2019-04-06T14:58:03.814Z,14.77
2019-04-06T15:01:04.055Z,15.77
2019-04-06T15:04:02.812Z,16.70
2019-04-06T15:06:54.818Z,17.13
2019-04-06T15:09:50.686Z,17.77
2019-04-06T15:12:51.177Z,14.07
2019-04-06T15:15:51.258Z,12.33
2019-04-06T15:18:47.379Z,14.27
2019-04-06T15:21:41.210Z,16.00
2019-04-06T15:24:18.249Z,15.10
2019-04-06T15:27:10.779Z,14.83
2019-04-06T15:29:52.344Z,13.27
2019-04-06T15:32:35.634Z,13.53
2019-04-06T15:35:37.663Z,13.73
2019-04-06T15:38:25.633Z,14.97
2019-04-06T15:41:09.032Z,13.40
2019-04-06T15:44:00.363Z,13.27
2019-04-06T15:47:09.550Z,13.20
2019-04-06T15:49:57.902Z,14.77
2019-04-06T15:52:49.002Z,15.00
2019-04-06T15:55:37.295Z,16.03
2019-04-06T15:58:22.420Z,14.00
2019-04-06T16:01:11.095Z,13.07
2019-04-06T16:03:55.395Z,14.23
2019-04-06T16:06:44.333Z,15.13
2019-04-06T16:09:43.311Z,13.53
2019-04-06T16:12:31.380Z,15.10
2019-04-06T16:15:15.306Z,15.70
2019-04-06T16:18:05.969Z,15.07
2019-04-06T16:20:42.622Z,17.60
2019-04-06T16:23:23.204Z,17.93
2019-04-06T16:26:09.203Z,19.67
2019-04-06T16:28:49.721Z,24.80
2019-04-06T16:31:57.174Z,19.87
2019-04-06T16:34:47.016Z,15.60
2019-04-06T16:37:48.559Z,18.93
2019-04-06T16:40:42.802Z,19.53
2019-04-06T16:44:18.592Z,21.70
2019-04-06T16:47:25.000Z,18.57
2019-04-06T16:50:33.557Z,18.30
2019-04-06T16:53:38.231Z,17.10
2019-04-06T16:56:26.606Z,16.47
2019-04-06T16:59:06.557Z,16.80
2019-04-06T17:01:57.398Z,17.50
2019-04-06T17:04:37.389Z,17.37
2019-04-06T17:07:35.809Z,22.07
2019-04-06T17:10:17.043Z,17.40
2019-04-06T17:13:12.364Z,17.67
2019-04-06T17:16:06.331Z,17.57
2019-04-06T17:18:58.304Z,21.33
2019-04-06T17:21:51.192Z,17.60
2019-04-06T17:24:29.591Z,18.73
2019-04-06T17:27:21.196Z,18.40
2019-04-06T17:30:04.132Z,16.40
2019-04-06T17:32:42.989Z,24.07
2019-04-06T17:35:44.760Z,17.00
2019-04-06T17:38:44.779Z,20.53
2019-04-06T17:41:39.923Z,17.93
2019-04-06T17:44:40.458Z,18.87
2019-04-06T17:47:24.267Z,20.23
2019-04-06T17:50:16.528Z,15.73
2019-04-06T17:53:02.183Z,18.53
2019-04-06T17:56:04.757Z,20.20
2019-04-06T17:59:00.152Z,18.07
2019-04-06T18:01:59.027Z,19.40
2019-04-06T18:05:04.486Z,21.07
2019-04-06T18:08:04.839Z,17.33
2019-04-06T18:11:11.323Z,22.13
2019-04-06T18:13:59.769Z,22.90
2019-04-06T18:16:38.602Z,20.77
2019-04-06T18:19:15.043Z,20.80
2019-04-06T18:21:49.160Z,23.20
2019-04-06T18:24:37.997Z,22.53
2019-04-06T18:27:08.194Z,17.73
2019-04-06T18:30:18.268Z,24.20
2019-04-06T18:33:27.080Z,26.50
2019-04-06T18:36:01.187Z,22.53
2019-04-06T18:38:52.218Z,24.23
2019-04-06T18:41:24.838Z,28.90
2019-04-06T18:44:05.782Z,25.63
2019-04-06T18:46:41.910Z,24.77
2019-04-06T18:49:15.248Z,24.50
2019-04-06T18:51:54.080Z,24.57
2019-04-06T18:54:34.695Z,23.50
2019-04-06T18:57:08.314Z,26.97
2019-04-06T18:59:39.120Z,32.00
2019-04-06T19:02:11.019Z,28.00
2019-04-06T19:04:42.146Z,22.93
2019-04-06T19:07:12.823Z,26.40
2019-04-06T19:09:44.135Z,28.97
2019-04-06T19:12:15.068Z,28.67
2019-04-06T19:14:48.410Z,25.77
2019-04-06T19:17:22.947Z,26.50
2019-04-06T19:20:15.078Z,25.63
2019-04-06T19:22:45.591Z,21.70
2019-04-06T19:25:16.122Z,23.20
2019-04-06T19:27:49.714Z,21.70
2019-04-06T19:30:23.785Z,26.13
2019-04-06T19:32:56.943Z,25.23
2019-04-06T19:35:28.652Z,24.43
2019-04-06T19:38:02.460Z,25.53
2019-04-06T19:40:34.575Z,26.47
2019-04-06T19:43:09.914Z,23.73
2019-04-06T19:45:40.830Z,24.87
2019-04-06T19:48:12.466Z,23.80
2019-04-06T19:50:43.176Z,25.73
2019-04-06T19:53:13.734Z,23.27
2019-04-06T19:55:47.018Z,24.97
2019-04-06T19:58:24.979Z,23.20
2019-04-06T20:01:06.951Z,24.27
2019-04-06T20:03:42.385Z,23.97
2019-04-06T20:06:16.898Z,26.00
2019-04-06T20:08:54.261Z,24.07
2019-04-06T20:11:25.570Z,26.13
2019-04-06T20:14:01.523Z,24.40
2019-04-06T20:16:37.268Z,27.20
2019-04-06T20:19:14.076Z,29.27
2019-04-06T20:21:54.846Z,26.57
2019-04-06T20:24:30.026Z,26.43
2019-04-06T20:29:59.242Z,29.73
2019-04-06T20:32:48.437Z,26.20
2019-04-06T20:35:14.818Z,26.77
2019-04-06T20:37:47.730Z,29.10
2019-04-06T20:40:23.423Z,28.23
2019-04-06T20:43:07.241Z,32.90
2019-04-06T20:45:59.138Z,30.90
2019-04-06T20:48:38.442Z,30.03
2019-04-06T20:51:25.029Z,30.43
2019-04-06T20:54:33.085Z,31.93
2019-04-06T20:57:30.859Z,32.17
2019-04-06T21:00:10.875Z,29.63
2019-04-06T21:02:45.986Z,28.87
2019-04-06T21:05:16.997Z,32.17
2019-04-06T21:07:48.494Z,29.67
2019-04-06T21:11:06.453Z,32.20
2019-04-06T21:13:36.954Z,30.00
2019-04-06T21:16:34.324Z,29.70
2019-04-06T21:19:56.275Z,33.10
2019-04-06T21:22:29.411Z,31.40
2019-04-06T21:25:02.548Z,35.00
2019-04-06T21:27:36.295Z,31.23
2019-04-06T21:35:32.544Z,30.83
2019-04-06T21:42:16.240Z,31.10
2019-04-06T21:44:53.820Z,32.97
2019-04-06T21:47:51.158Z,34.73
2019-04-06T21:51:24.280Z,34.93
2019-04-06T21:53:55.048Z,36.60
2019-04-06T21:56:34.162Z,35.17
2019-04-06T21:59:15.297Z,32.50
2019-04-06T22:01:56.187Z,34.03
2019-04-06T22:04:27.775Z,34.60
2019-04-06T22:06:59.185Z,33.67
2019-04-06T22:09:30.190Z,33.13
2019-04-06T22:12:05.339Z,35.17
2019-04-06T22:14:33.736Z,32.90
2019-04-06T22:17:07.464Z,33.40
2019-04-06T22:19:38.244Z,37.20
2019-04-06T22:22:10.088Z,30.37
2019-04-06T22:24:43.235Z,33.60
2019-04-06T22:27:14.214Z,32.57
2019-04-06T22:29:46.318Z,35.10
2019-04-06T22:32:17.901Z,35.10
2019-04-06T22:34:48.725Z,33.47
2019-04-06T22:37:28.188Z,32.47
2019-04-06T22:40:00.337Z,33.57
2019-04-06T22:42:31.689Z,34.30
2019-04-06T22:45:14.994Z,33.53
2019-04-06T22:47:56.501Z,35.37
2019-04-06T22:50:27.336Z,32.90
2019-04-06T22:53:00.483Z,45.23
2019-04-06T22:55:35.372Z,35.07
2019-04-06T22:58:06.428Z,32.47
2019-04-06T23:01:11.665Z,36.43
2019-04-06T23:03:48.782Z,34.40
2019-04-06T23:09:59.941Z,32.67
2019-04-06T23:12:32.564Z,37.10
2019-04-06T23:15:19.027Z,37.13
2019-04-06T23:17:52.188Z,37.37
2019-04-06T23:20:26.789Z,41.37
2019-04-06T23:22:59.709Z,57.63
2019-04-06T23:25:33.494Z,39.47
2019-04-06T23:28:04.843Z,39.03
2019-04-06T23:30:37.485Z,41.23
2019-04-06T23:33:10.292Z,38.30
2019-04-06T23:35:41.318Z,41.20
2019-04-06T23:38:13.997Z,39.73
2019-04-06T23:40:44.357Z,73.73
2019-04-06T23:43:14.956Z,41.70
2019-04-06T23:45:51.495Z,42.90
2019-04-06T23:48:22.438Z,66.83
2019-04-06T23:50:56.639Z,46.80
2019-04-06T23:53:30.548Z,46.00
2019-04-06T23:56:10.973Z,45.50
2019-04-06T23:58:43.149Z,42.67
